Time,TemperatureF,DewpointF,PressureIn,WindDirection,WindDirectionDegrees,WindSpeedMPH,WindSpeedGustMPH,Humidity,HourlyPrecipIn,Conditions,Clouds,dailyrainin,SoftwareType,DateUTC
2013-04-26 00:01:00,38.5,30.9,30.29,North,0,0.0,0.0,74,0.00,,,0.00,pywws,2013-04-26 04:01:00,
2013-04-26 00:02:00,38.5,30.9,30.29,North,0,0.0,0.0,74,0.00,,,0.00,pywws,2013-04-26 04:02:00,
2013-04-26 00:03:00,38.5,30.9,30.29,North,0,0.0,0.0,74,0.00,,,0.00,pywws,2013-04-26 04:03:00,
2013-04-26 00:04:00,38.5,30.9,30.29,North,0,0.0,0.0,74,0.00,,,0.00,pywws,2013-04-26 04:04:00,
2013-04-26 00:11:00,37.4,29.5,30.29,North,0,0.0,0.0,73,0.00,,,0.00,pywws,2013-04-26 04:11:00,
2013-04-26 00:16:00,37.6,30.1,30.29,North,0,0.0,0.0,74,0.00,,,0.00,pywws,2013-04-26 04:16:00,
2013-04-26 00:21:00,37.9,30.7,30.30,North,0,0.0,0.0,75,0.00,,,0.00,pywws,2013-04-26 04:21:00,
2013-04-26 00:27:00,37.6,30.1,30.30,North,0,0.0,0.0,74,0.00,,,0.00,pywws,2013-04-26 04:27:00,
2013-04-26 00:35:00,36.9,28.4,30.30,North,0,0.0,0.0,71,0.00,,,0.00,pywws,2013-04-26 04:35:00,
2013-04-26 00:41:00,36.3,27.8,30.30,North,0,0.0,0.0,71,0.00,,,0.00,pywws,2013-04-26 04:41:00,
2013-04-26 00:47:00,36.0,27.8,30.30,North,0,0.0,0.0,72,0.00,,,0.00,pywws,2013-04-26 04:47:00,
2013-04-26 00:52:00,36.3,28.8,30.30,North,0,0.0,0.0,74,0.00,,,0.00,pywws,2013-04-26 04:52:00,
2013-04-26 00:58:00,35.8,29.0,30.30,North,0,0.0,0.0,76,0.00,,,0.00,pywws,2013-04-26 04:58:00,
2013-04-26 01:04:00,35.8,29.3,30.30,North,0,0.0,0.0,77,0.00,,,0.00,pywws,2013-04-26 05:04:00,
2013-04-26 01:10:00,35.1,28.9,30.31,North,0,0.0,0.0,78,0.00,,,0.00,pywws,2013-04-26 05:10:00,
2013-04-26 01:15:00,34.7,28.2,30.30,North,0,0.0,0.0,77,0.00,,,0.00,pywws,2013-04-26 05:15:00,
2013-04-26 01:21:00,34.5,28.4,30.30,North,0,0.0,0.0,78,0.00,,,0.00,pywws,2013-04-26 05:21:00,
2013-04-26 01:27:00,35.2,29.4,30.30,North,0,0.0,0.0,79,0.00,,,0.00,pywws,2013-04-26 05:27:00,
2013-04-26 01:33:00,35.4,29.9,30.30,North,0,0.0,0.0,80,0.00,,,0.00,pywws,2013-04-26 05:33:00,
2013-04-26 01:39:00,35.4,29.6,30.30,North,0,0.0,0.0,79,0.00,,,0.00,pywws,2013-04-26 05:39:00,
2013-04-26 01:45:00,34.9,28.7,30.30,North,0,0.0,0.0,78,0.00,,,0.00,pywws,2013-04-26 05:45:00,
2013-04-26 01:51:00,34.2,28.0,30.30,North,0,0.0,0.0,78,0.00,,,0.00,pywws,2013-04-26 05:51:00,
2013-04-26 01:57:00,34.0,27.9,30.30,North,0,0.0,0.0,78,0.00,,,0.00,pywws,2013-04-26 05:57:00,
2013-04-26 02:03:00,33.4,27.9,30.30,North,0,0.0,0.0,80,0.00,,,0.00,pywws,2013-04-26 06:03:00,
2013-04-26 02:08:00,33.4,27.9,30.30,North,0,0.0,0.0,80,0.00,,,0.00,pywws,2013-04-26 06:08:00,
2013-04-26 02:14:00,34.3,29.1,30.29,North,0,0.0,0.0,81,0.00,,,0.00,pywws,2013-04-26 06:14:00,
2013-04-26 02:19:00,34.0,28.5,30.30,North,0,0.0,0.0,80,0.00,,,0.00,pywws,2013-04-26 06:19:00,
2013-04-26 02:27:00,33.8,28.3,30.30,North,0,0.0,0.0,80,0.00,,,0.00,pywws,2013-04-26 06:27:00,
2013-04-26 02:33:00,33.6,28.1,30.30,North,0,0.0,0.0,80,0.00,,,0.00,pywws,2013-04-26 06:33:00,
2013-04-26 02:39:00,33.4,27.9,30.30,North,0,0.0,0.0,80,0.00,,,0.00,pywws,2013-04-26 06:39:00,
2013-04-26 02:45:00,32.7,26.9,30.30,North,0,0.0,0.0,79,0.00,,,0.00,pywws,2013-04-26 06:45:00,
2013-04-26 02:51:00,32.4,26.6,30.30,North,0,0.0,0.0,79,0.00,,,0.00,pywws,2013-04-26 06:51:00,
2013-04-26 02:57:00,32.9,27.7,30.30,North,0,0.0,0.0,81,0.00,,,0.00,pywws,2013-04-26 06:57:00,
2013-04-26 03:03:00,32.9,28.0,30.30,North,0,0.0,0.0,82,0.00,,,0.00,pywws,2013-04-26 07:03:00,
2013-04-26 03:08:00,32.7,27.8,30.30,North,0,0.0,0.0,82,0.00,,,0.00,pywws,2013-04-26 07:08:00,
2013-04-26 03:14:00,32.9,28.3,30.30,North,0,0.0,0.0,83,0.00,,,0.00,pywws,2013-04-26 07:14:00,
2013-04-26 03:19:00,32.4,27.5,30.30,North,0,0.0,0.0,82,0.00,,,0.00,pywws,2013-04-26 07:19:00,
2013-04-26 03:25:00,32.2,27.3,30.30,North,0,0.0,0.0,82,0.00,,,0.00,pywws,2013-04-26 07:25:00,
2013-04-26 03:31:00,31.6,27.1,30.31,North,0,0.0,0.0,83,0.00,,,0.00,pywws,2013-04-26 07:31:00,
2013-04-26 03:36:00,31.6,27.4,30.31,North,0,0.0,0.0,84,0.00,,,0.00,pywws,2013-04-26 07:36:00,
2013-04-26 03:42:00,32.0,27.4,30.31,North,0,0.0,0.0,83,0.00,,,0.00,pywws,2013-04-26 07:42:00,
2013-04-26 03:47:00,32.0,27.4,30.31,North,0,0.0,0.0,83,0.00,,,0.00,pywws,2013-04-26 07:47:00,
2013-04-26 03:54:00,32.0,27.7,30.31,North,0,0.0,0.0,84,0.00,,,0.00,pywws,2013-04-26 07:54:00,
2013-04-26 03:59:00,32.2,27.9,30.32,North,0,0.0,0.0,84,0.00,,,0.00,pywws,2013-04-26 07:59:00,
2013-04-26 04:05:00,31.6,27.7,30.32,North,0,0.0,0.0,85,0.00,,,0.00,pywws,2013-04-26 08:05:00,
2013-04-26 04:11:00,31.1,27.1,30.32,North,0,0.0,0.0,85,0.00,,,0.00,pywws,2013-04-26 08:11:00,
2013-04-26 04:16:00,31.1,27.1,30.32,North,0,0.0,0.0,85,0.00,,,0.00,pywws,2013-04-26 08:16:00,
2013-04-26 04:22:00,31.3,27.3,30.33,North,0,0.0,0.0,85,0.00,,,0.00,pywws,2013-04-26 08:22:00,
2013-04-26 04:27:00,31.8,28.1,30.33,North,0,0.0,0.0,86,0.00,,,0.00,pywws,2013-04-26 08:27:00,
2013-04-26 04:35:00,32.0,28.3,30.33,North,0,0.0,0.0,86,0.00,,,0.00,pywws,2013-04-26 08:35:00,
2013-04-26 04:40:00,31.8,28.4,30.34,North,0,0.0,0.0,87,0.00,,,0.00,pywws,2013-04-26 08:40:00,
2013-04-26 04:47:00,30.9,27.5,30.33,North,0,0.0,0.0,87,0.00,,,0.00,pywws,2013-04-26 08:47:00,
2013-04-26 04:53:00,30.9,27.5,30.33,North,0,0.0,0.0,87,0.00,,,0.00,pywws,2013-04-26 08:53:00,
2013-04-26 04:59:00,30.9,27.8,30.34,North,0,0.0,0.0,88,0.00,,,0.00,pywws,2013-04-26 08:59:00,
2013-04-26 05:05:00,30.7,27.6,30.34,North,0,0.0,0.0,88,0.00,,,0.00,pywws,2013-04-26 09:05:00,
2013-04-26 05:11:00,30.2,27.1,30.34,North,0,0.0,0.0,88,0.00,,,0.00,pywws,2013-04-26 09:11:00,
2013-04-26 05:17:00,31.1,28.2,30.34,North,0,0.0,0.0,89,0.00,,,0.00,pywws,2013-04-26 09:17:00,
2013-04-26 05:23:00,31.1,28.5,30.34,North,0,0.0,0.0,90,0.00,,,0.00,pywws,2013-04-26 09:23:00,
2013-04-26 05:29:00,31.1,28.8,30.35,North,0,0.0,0.0,91,0.00,,,0.00,pywws,2013-04-26 09:29:00,
2013-04-26 05:38:00,30.9,28.6,30.35,North,0,0.0,0.0,91,0.00,,,0.00,pywws,2013-04-26 09:38:00,
2013-04-26 05:44:00,30.6,28.3,30.35,North,0,0.0,0.0,91,0.00,,,0.00,pywws,2013-04-26 09:44:00,
2013-04-26 05:50:00,30.0,28.0,30.35,North,0,0.0,0.0,92,0.00,,,0.00,pywws,2013-04-26 09:50:00,
2013-04-26 05:55:00,29.8,27.8,30.35,North,0,0.0,0.0,92,0.00,,,0.00,pywws,2013-04-26 09:55:00,
2013-04-26 06:01:00,29.8,27.8,30.35,North,0,0.0,0.0,92,0.00,,,0.00,pywws,2013-04-26 10:01:00,
2013-04-26 06:07:00,30.6,28.5,30.36,North,0,0.0,0.0,92,0.00,,,0.00,pywws,2013-04-26 10:07:00,
2013-04-26 06:13:00,31.1,29.3,30.36,North,0,0.0,0.0,93,0.00,,,0.00,pywws,2013-04-26 10:13:00,
2013-04-26 06:19:00,31.5,29.7,30.36,North,0,0.0,0.0,93,0.00,,,0.00,pywws,2013-04-26 10:19:00,
2013-04-26 06:24:00,31.5,29.7,30.37,North,0,0.0,0.0,93,0.00,,,0.00,pywws,2013-04-26 10:24:00,
2013-04-26 06:30:00,31.6,30.1,30.37,North,0,0.0,0.0,94,0.00,,,0.00,pywws,2013-04-26 10:30:00,
2013-04-26 06:35:00,32.2,30.4,30.37,North,0,0.0,0.0,93,0.00,,,0.00,pywws,2013-04-26 10:35:00,
2013-04-26 06:42:00,32.5,30.7,30.37,North,0,0.0,0.0,93,0.00,,,0.00,pywws,2013-04-26 10:42:00,
2013-04-26 06:47:00,32.9,31.1,30.37,North,0,0.0,0.0,93,0.00,,,0.00,pywws,2013-04-26 10:47:00,
2013-04-26 06:53:00,33.4,31.6,30.37,North,0,0.0,0.0,93,0.00,,,0.00,pywws,2013-04-26 10:53:00,
2013-04-26 06:59:00,34.2,32.1,30.38,North,0,0.0,0.0,92,0.00,,,0.00,pywws,2013-04-26 10:59:00,
2013-04-26 07:04:00,35.2,33.2,30.38,North,0,0.0,0.0,92,0.00,,,0.00,pywws,2013-04-26 11:04:00,
2013-04-26 07:10:00,36.5,34.1,30.38,North,0,0.0,0.0,91,0.00,,,0.00,pywws,2013-04-26 11:10:00,
2013-04-26 07:15:00,38.1,36.8,30.38,North,0,0.0,0.0,95,0.00,,,0.00,pywws,2013-04-26 11:15:00,
2013-04-26 07:21:00,39.2,37.1,30.38,North,0,0.0,0.0,92,0.00,,,0.00,pywws,2013-04-26 11:21:00,
2013-04-26 07:27:00,40.8,37.8,30.38,North,0,0.0,0.0,89,0.00,,,0.00,pywws,2013-04-26 11:27:00,
2013-04-26 07:32:00,42.1,37.9,30.38,South,180,0.0,0.0,85,0.00,,,0.00,pywws,2013-04-26 11:32:00,
2013-04-26 07:38:00,46.8,40.9,30.38,South,180,0.0,0.0,80,0.00,,,0.00,pywws,2013-04-26 11:38:00,
2013-04-26 07:43:00,49.1,40.8,30.38,South,180,0.0,0.0,73,0.00,,,0.00,pywws,2013-04-26 11:43:00,
2013-04-26 07:49:00,49.5,37.4,30.38,SW,225,0.0,0.0,63,0.00,,,0.00,pywws,2013-04-26 11:49:00,
2013-04-26 07:55:00,51.8,36.2,30.38,North,0,0.0,0.0,55,0.00,,,0.00,pywws,2013-04-26 11:55:00,
2013-04-26 08:00:00,50.2,34.2,30.38,North,0,0.0,0.0,54,0.00,,,0.00,pywws,2013-04-26 12:00:00,
2013-04-26 08:06:00,50.0,34.0,30.38,NE,45,0.0,0.0,54,0.00,,,0.00,pywws,2013-04-26 12:06:00,
2013-04-26 08:11:00,50.5,33.1,30.38,East,90,0.0,0.0,51,0.00,,,0.00,pywws,2013-04-26 12:11:00,
2013-04-26 08:17:00,50.4,33.9,30.38,NW,315,0.0,0.0,53,0.00,,,0.00,pywws,2013-04-26 12:17:00,
2013-04-26 08:23:00,50.7,33.3,30.38,North,0,0.0,0.0,51,0.00,,,0.00,pywws,2013-04-26 12:23:00,
2013-04-26 08:28:00,52.2,34.1,30.38,South,180,0.0,0.0,50,0.00,,,0.00,pywws,2013-04-26 12:28:00,
2013-04-26 08:34:00,53.1,35.4,30.38,SW,225,0.0,0.0,51,0.00,,,0.00,pywws,2013-04-26 12:34:00,
2013-04-26 08:39:00,51.8,32.7,30.39,SW,225,0.0,0.0,48,0.00,,,0.00,pywws,2013-04-26 12:39:00,
2013-04-26 08:45:00,52.9,34.2,30.38,North,0,0.0,0.7,49,0.00,,,0.00,pywws,2013-04-26 12:45:00,
2013-04-26 08:51:00,54.0,33.7,30.38,North,0,0.0,0.0,46,0.00,,,0.00,pywws,2013-04-26 12:51:00,
2013-04-26 08:56:00,54.5,34.1,30.38,SE,135,0.0,0.7,46,0.00,,,0.00,pywws,2013-04-26 12:56:00,
2013-04-26 09:02:00,52.9,32.1,30.38,South,180,0.0,0.0,45,0.00,,,0.00,pywws,2013-04-26 13:02:00,
2013-04-26 09:07:00,54.0,32.0,30.39,North,0,0.0,1.6,43,0.00,,,0.00,pywws,2013-04-26 13:07:00,
2013-04-26 09:13:00,55.0,33.5,30.39,North,0,0.0,0.0,44,0.00,,,0.00,pywws,2013-04-26 13:13:00,
2013-04-26 09:19:00,54.9,32.2,30.38,West,270,0.0,0.0,42,0.00,,,0.00,pywws,2013-04-26 13:19:00,
2013-04-26 09:24:00,55.6,32.9,30.39,West,270,0.0,0.0,42,0.00,,,0.00,pywws,2013-04-26 13:24:00,
2013-04-26 09:30:00,55.9,33.8,30.39,North,0,0.0,0.0,43,0.00,,,0.00,pywws,2013-04-26 13:30:00,
2013-04-26 09:35:00,56.1,33.3,30.39,West,270,0.0,0.0,42,0.00,,,0.00,pywws,2013-04-26 13:35:00,
2013-04-26 09:41:00,56.8,34.0,30.39,North,0,0.0,0.0,42,0.00,,,0.00,pywws,2013-04-26 13:41:00,
2013-04-26 09:47:00,56.3,32.9,30.39,North,0,0.0,0.0,41,0.00,,,0.00,pywws,2013-04-26 13:47:00,
2013-04-26 09:52:00,57.7,36.0,30.39,North,0,0.0,0.0,44,0.00,,,0.00,pywws,2013-04-26 13:52:00,
2013-04-26 09:58:00,57.2,33.1,30.39,North,0,0.0,0.7,40,0.00,,,0.00,pywws,2013-04-26 13:58:00,
2013-04-26 10:03:00,56.8,35.2,30.39,East,90,0.0,0.0,44,0.00,,,0.00,pywws,2013-04-26 14:03:00,
2013-04-26 10:09:00,56.5,33.7,30.39,NE,45,0.0,1.6,42,0.00,,,0.00,pywws,2013-04-26 14:09:00,
2013-04-26 10:15:00,57.6,35.8,30.39,NW,315,0.0,0.0,44,0.00,,,0.00,pywws,2013-04-26 14:15:00,
2013-04-26 10:20:00,56.7,32.6,30.39,West,270,0.0,0.0,40,0.00,,,0.00,pywws,2013-04-26 14:20:00,
2013-04-26 10:26:00,57.6,34.6,30.39,SW,225,0.0,0.0,42,0.00,,,0.00,pywws,2013-04-26 14:26:00,
2013-04-26 10:31:00,59.0,36.5,30.39,NW,315,0.0,0.0,43,0.00,,,0.00,pywws,2013-04-26 14:31:00,
2013-04-26 10:37:00,58.3,35.3,30.39,North,0,0.0,0.0,42,0.00,,,0.00,pywws,2013-04-26 14:37:00,
2013-04-26 10:43:00,57.7,34.2,30.39,North,0,0.0,0.0,41,0.00,,,0.00,pywws,2013-04-26 14:43:00,
2013-04-26 10:48:00,59.2,36.7,30.39,West,270,0.0,0.0,43,0.00,,,0.00,pywws,2013-04-26 14:48:00,
2013-04-26 10:54:00,59.7,37.2,30.39,NW,315,0.0,0.0,43,0.00,,,0.00,pywws,2013-04-26 14:54:00,
2013-04-26 10:59:00,59.9,36.8,30.39,NE,45,0.0,0.0,42,0.00,,,0.00,pywws,2013-04-26 14:59:00,
2013-04-26 11:05:00,60.3,36.5,30.39,East,90,0.0,0.0,41,0.00,,,0.00,pywws,2013-04-26 15:05:00,
2013-04-26 11:11:00,60.4,34.7,30.39,South,180,0.0,0.0,38,0.00,,,0.00,pywws,2013-04-26 15:11:00,
2013-04-26 11:16:00,61.7,35.8,30.39,West,270,0.0,0.0,38,0.00,,,0.00,pywws,2013-04-26 15:16:00,
2013-04-26 11:22:00,63.3,35.9,30.38,West,270,0.0,0.0,36,0.00,,,0.00,pywws,2013-04-26 15:22:00,
2013-04-26 11:27:00,61.9,34.6,30.39,North,0,0.0,0.0,36,0.00,,,0.00,pywws,2013-04-26 15:27:00,
2013-04-26 11:33:00,61.0,30.9,30.39,South,180,0.0,0.0,32,0.00,,,0.00,pywws,2013-04-26 15:33:00,
2013-04-26 11:39:00,62.2,32.8,30.38,West,270,0.0,0.7,33,0.00,,,0.00,pywws,2013-04-26 15:39:00,
2013-04-26 11:44:00,62.1,31.9,30.38,South,180,0.0,0.0,32,0.00,,,0.00,pywws,2013-04-26 15:44:00,
2013-04-26 11:50:00,62.6,31.5,30.38,East,90,0.0,0.0,31,0.00,,,0.00,pywws,2013-04-26 15:50:00,
2013-04-26 11:56:00,60.3,31.8,30.38,North,0,0.0,0.0,34,0.00,,,0.00,pywws,2013-04-26 15:56:00,
2013-04-26 12:02:00,62.6,36.0,30.37,NW,315,0.0,0.7,37,0.00,,,0.00,pywws,2013-04-26 16:02:00,
2013-04-26 12:07:00,63.5,38.7,30.37,North,0,1.6,3.8,40,0.00,,,0.00,pywws,2013-04-26 16:07:00,
2013-04-26 12:13:00,59.4,32.4,30.37,West,270,0.0,0.0,36,0.00,,,0.00,pywws,2013-04-26 16:13:00,
2013-04-26 12:19:00,61.0,32.4,30.37,West,270,0.0,0.0,34,0.00,,,0.00,pywws,2013-04-26 16:19:00,
2013-04-26 12:24:00,63.1,32.8,30.37,South,180,0.0,0.0,32,0.00,,,0.00,pywws,2013-04-26 16:24:00,
2013-04-26 12:30:00,67.1,37.0,30.36,North,0,0.0,0.0,33,0.00,,,0.00,pywws,2013-04-26 16:30:00,
2013-04-26 12:35:00,67.3,37.9,30.36,NW,315,0.0,0.0,34,0.00,,,0.00,pywws,2013-04-26 16:35:00,
2013-04-26 12:41:00,67.3,37.9,30.36,NE,45,0.0,0.0,34,0.00,,,0.00,pywws,2013-04-26 16:41:00,
2013-04-26 12:47:00,61.9,31.7,30.36,East,90,0.0,0.0,32,0.00,,,0.00,pywws,2013-04-26 16:47:00,
2013-04-26 12:52:00,63.1,33.6,30.36,South,180,0.0,0.0,33,0.00,,,0.00,pywws,2013-04-26 16:52:00,
2013-04-26 12:58:00,61.5,32.9,30.35,East,90,0.0,0.0,34,0.00,,,0.00,pywws,2013-04-26 16:58:00,
2013-04-26 13:03:00,64.8,36.5,30.35,NW,315,0.0,0.0,35,0.00,,,0.00,pywws,2013-04-26 17:03:00,
2013-04-26 13:09:00,61.0,33.8,30.35,North,0,0.0,0.0,36,0.00,,,0.00,pywws,2013-04-26 17:09:00,
2013-04-26 13:15:00,60.3,34.6,30.35,North,0,0.0,0.0,38,0.00,,,0.00,pywws,2013-04-26 17:15:00,
2013-04-26 13:20:00,60.4,36.0,30.34,North,0,0.0,0.0,40,0.00,,,0.00,pywws,2013-04-26 17:20:00,
2013-04-26 13:26:00,60.6,37.4,30.34,SE,135,0.0,0.0,42,0.00,,,0.00,pywws,2013-04-26 17:26:00,
2013-04-26 13:31:00,60.8,34.4,30.35,East,90,0.0,1.6,37,0.00,,,0.00,pywws,2013-04-26 17:31:00,
2013-04-26 13:37:00,60.8,35.7,30.35,West,270,0.0,0.0,39,0.00,,,0.00,pywws,2013-04-26 17:37:00,
2013-04-26 13:43:00,60.8,37.6,30.35,North,0,0.0,0.0,42,0.00,,,0.00,pywws,2013-04-26 17:43:00,
2013-04-26 13:48:00,60.4,37.8,30.35,NE,45,0.0,0.0,43,0.00,,,0.00,pywws,2013-04-26 17:48:00,
2013-04-26 13:54:00,60.8,37.6,30.35,North,0,0.0,0.0,42,0.00,,,0.00,pywws,2013-04-26 17:54:00,
2013-04-26 13:59:00,61.9,37.9,30.35,North,0,0.0,0.7,41,0.00,,,0.00,pywws,2013-04-26 17:59:00,
2013-04-26 14:05:00,61.9,38.5,30.34,North,0,0.0,0.7,42,0.00,,,0.00,pywws,2013-04-26 18:05:00,
2013-04-26 14:11:00,61.5,37.0,30.35,SE,135,0.0,0.7,40,0.00,,,0.00,pywws,2013-04-26 18:11:00,
2013-04-26 14:16:00,62.1,38.7,30.34,SE,135,0.0,0.0,42,0.00,,,0.00,pywws,2013-04-26 18:16:00,
2013-04-26 14:22:00,62.4,36.5,30.34,West,270,0.0,0.0,38,0.00,,,0.00,pywws,2013-04-26 18:22:00,
2013-04-26 14:27:00,64.9,40.0,30.34,NE,45,0.0,1.6,40,0.00,,,0.00,pywws,2013-04-26 18:27:00,
2013-04-26 14:33:00,64.4,37.6,30.34,North,0,0.7,5.4,37,0.00,,,0.00,pywws,2013-04-26 18:33:00,
2013-04-26 14:39:00,66.7,41.0,30.34,West,270,0.0,0.7,39,0.00,,,0.00,pywws,2013-04-26 18:39:00,
2013-04-26 14:44:00,62.1,36.2,30.34,NW,315,0.0,0.7,38,0.00,,,0.00,pywws,2013-04-26 18:44:00,
2013-04-26 14:50:00,61.0,35.8,30.34,North,0,2.2,6.9,39,0.00,,,0.00,pywws,2013-04-26 18:50:00,
2013-04-26 14:55:00,60.4,37.8,30.34,North,0,0.0,0.0,43,0.00,,,0.00,pywws,2013-04-26 18:55:00,
2013-04-26 15:01:00,61.3,38.0,30.34,East,90,0.0,0.0,42,0.00,,,0.00,pywws,2013-04-26 19:01:00,
2013-04-26 15:07:00,63.0,38.9,30.34,NW,315,0.0,0.7,41,0.00,,,0.00,pywws,2013-04-26 19:07:00,
2013-04-26 15:12:00,60.8,37.0,30.34,North,0,0.7,7.6,41,0.00,,,0.00,pywws,2013-04-26 19:12:00,
2013-04-26 15:18:00,60.8,38.2,30.35,East,90,0.0,0.7,43,0.00,,,0.00,pywws,2013-04-26 19:18:00,
2013-04-26 15:23:00,59.9,37.9,30.35,West,270,0.0,0.0,44,0.00,,,0.00,pywws,2013-04-26 19:23:00,
2013-04-26 15:29:00,60.6,38.6,30.35,NE,45,0.0,1.6,44,0.00,,,0.00,pywws,2013-04-26 19:29:00,
2013-04-26 15:35:00,60.8,38.2,30.35,NW,315,0.0,1.6,43,0.00,,,0.00,pywws,2013-04-26 19:35:00,
2013-04-26 15:40:00,61.0,38.9,30.34,North,0,0.0,0.0,44,0.00,,,0.00,pywws,2013-04-26 19:40:00,
2013-04-26 15:46:00,60.4,39.0,30.35,NE,45,0.0,0.0,45,0.00,,,0.00,pywws,2013-04-26 19:46:00,
2013-04-26 15:51:00,59.5,38.2,30.35,East,90,0.0,0.0,45,0.00,,,0.00,pywws,2013-04-26 19:51:00,
2013-04-26 15:57:00,58.6,37.9,30.35,North,0,0.0,3.8,46,0.00,,,0.00,pywws,2013-04-26 19:57:00,
2013-04-26 16:03:00,60.4,39.0,30.35,East,90,0.7,5.4,45,0.00,,,0.00,pywws,2013-04-26 20:03:00,
2013-04-26 16:08:00,60.1,40.3,30.35,South,180,0.0,0.0,48,0.00,,,0.00,pywws,2013-04-26 20:08:00,
2013-04-26 16:14:00,59.4,40.2,30.35,SE,135,0.0,0.0,49,0.00,,,0.00,pywws,2013-04-26 20:14:00,
2013-04-26 16:19:00,59.0,38.8,30.35,East,90,0.0,0.0,47,0.00,,,0.00,pywws,2013-04-26 20:19:00,
2013-04-26 16:25:00,59.5,38.7,30.35,NE,45,0.0,1.6,46,0.00,,,0.00,pywws,2013-04-26 20:25:00,
2013-04-26 16:31:00,59.2,39.0,30.35,East,90,0.0,0.0,47,0.00,,,0.00,pywws,2013-04-26 20:31:00,
2013-04-26 16:36:00,58.5,38.8,30.35,South,180,0.0,0.7,48,0.00,,,0.00,pywws,2013-04-26 20:36:00,
2013-04-26 16:42:00,58.3,38.7,30.35,East,90,0.0,0.0,48,0.00,,,0.00,pywws,2013-04-26 20:42:00,
2013-04-26 16:47:00,58.3,39.2,30.36,North,0,0.0,0.0,49,0.00,,,0.00,pywws,2013-04-26 20:47:00,
2013-04-26 16:53:00,57.2,37.2,30.36,West,270,0.0,0.7,47,0.00,,,0.00,pywws,2013-04-26 20:53:00,
2013-04-26 16:59:00,57.7,38.2,30.36,NW,315,0.0,1.6,48,0.00,,,0.00,pywws,2013-04-26 20:59:00,
2013-04-26 17:04:00,57.0,38.6,30.36,NE,45,0.0,1.6,50,0.00,,,0.00,pywws,2013-04-26 21:04:00,
2013-04-26 17:10:00,56.5,37.0,30.36,East,90,1.6,3.1,48,0.00,,,0.00,pywws,2013-04-26 21:10:00,
2013-04-26 17:15:00,56.5,37.0,30.35,North,0,0.0,0.7,48,0.00,,,0.00,pywws,2013-04-26 21:15:00,
2013-04-26 17:21:00,57.0,38.0,30.36,NE,45,1.6,4.5,49,0.00,,,0.00,pywws,2013-04-26 21:21:00,
2013-04-26 17:27:00,56.3,36.9,30.36,SE,135,0.0,0.0,48,0.00,,,0.00,pywws,2013-04-26 21:27:00,
2013-04-26 17:32:00,55.8,36.4,30.36,North,0,0.0,0.7,48,0.00,,,0.00,pywws,2013-04-26 21:32:00,
2013-04-26 17:38:00,55.8,36.4,30.37,East,90,0.0,0.7,48,0.00,,,0.00,pywws,2013-04-26 21:38:00,
2013-04-26 17:43:00,55.8,36.4,30.36,North,0,0.0,0.0,48,0.00,,,0.00,pywws,2013-04-26 21:43:00,
2013-04-26 17:49:00,55.0,36.7,30.37,NE,45,0.0,0.0,50,0.00,,,0.00,pywws,2013-04-26 21:49:00,
2013-04-26 17:55:00,55.0,37.2,30.37,NE,45,0.0,0.7,51,0.00,,,0.00,pywws,2013-04-26 21:55:00,
2013-04-26 18:00:00,55.2,37.4,30.37,NE,45,0.0,1.6,51,0.00,,,0.00,pywws,2013-04-26 22:00:00,
2013-04-26 18:06:00,54.9,37.1,30.37,North,-999,0.0,0.0,51,0.00,,,0.00,pywws,2013-04-26 22:06:00,
2013-04-26 18:11:00,54.7,37.4,30.37,North,0,0.0,0.0,52,0.00,,,0.00,pywws,2013-04-26 22:11:00,
2013-04-26 18:17:00,54.9,38.1,30.37,North,0,0.0,0.0,53,0.00,,,0.00,pywws,2013-04-26 22:17:00,
2013-04-26 18:23:00,54.7,37.9,30.37,East,90,0.0,0.0,53,0.00,,,0.00,pywws,2013-04-26 22:23:00,
2013-04-26 18:28:00,54.1,37.9,30.37,North,0,0.0,0.0,54,0.00,,,0.00,pywws,2013-04-26 22:28:00,
2013-04-26 18:35:00,54.0,38.2,30.37,North,0,0.0,0.0,55,0.00,,,0.00,pywws,2013-04-26 22:35:00,
2013-04-26 18:41:00,53.8,38.5,30.37,North,0,0.0,0.0,56,0.00,,,0.00,pywws,2013-04-26 22:41:00,
2013-04-26 18:47:00,53.6,38.3,30.38,North,0,0.0,0.0,56,0.00,,,0.00,pywws,2013-04-26 22:47:00,
2013-04-26 18:52:00,53.4,38.6,30.38,East,90,0.0,0.0,57,0.00,,,0.00,pywws,2013-04-26 22:52:00,
2013-04-26 18:58:00,53.1,38.7,30.38,SE,135,0.0,0.0,58,0.00,,,0.00,pywws,2013-04-26 22:58:00,
2013-04-26 19:03:00,53.1,38.2,30.38,North,0,0.0,0.0,57,0.00,,,0.00,pywws,2013-04-26 23:03:00,
2013-04-26 19:10:00,52.7,37.9,30.38,SE,135,0.0,0.0,57,0.00,,,0.00,pywws,2013-04-26 23:10:00,
2013-04-26 19:15:00,52.5,38.2,30.39,North,0,0.0,0.0,58,0.00,,,0.00,pywws,2013-04-26 23:15:00,
2013-04-26 19:21:00,52.3,38.0,30.39,East,90,0.0,0.0,58,0.00,,,0.00,pywws,2013-04-26 23:21:00,
2013-04-26 19:27:00,52.0,37.7,30.40,East,90,0.0,0.0,58,0.00,,,0.00,pywws,2013-04-26 23:27:00,
2013-04-26 19:32:00,51.8,37.1,30.39,SE,135,0.0,0.0,57,0.00,,,0.00,pywws,2013-04-26 23:32:00,
2013-04-26 19:38:00,51.3,37.0,30.39,North,0,0.0,0.0,58,0.00,,,0.00,pywws,2013-04-26 23:38:00,
2013-04-26 19:43:00,50.7,37.3,30.40,East,90,0.0,0.7,60,0.00,,,0.00,pywws,2013-04-26 23:43:00,
2013-04-26 19:49:00,50.7,36.9,30.40,North,0,0.0,0.0,59,0.00,,,0.00,pywws,2013-04-26 23:49:00,
2013-04-26 19:55:00,50.5,37.2,30.40,North,0,0.0,0.0,60,0.00,,,0.00,pywws,2013-04-26 23:55:00,
2013-04-26 19:56:00,50.5,37.2,30.40,East,90,0.0,0.0,60,0.00,,,0.00,pywws,2013-04-26 23:56:00,
2013-04-26 20:06:00,50.5,37.2,30.40,North,0,0.0,0.0,60,0.00,,,0.00,pywws,2013-04-27 00:06:00,
2013-04-26 20:11:00,50.2,37.3,30.40,West,270,0.0,0.0,61,0.00,,,0.00,pywws,2013-04-27 00:11:00,
2013-04-26 20:17:00,50.2,37.3,30.40,North,0,0.0,0.0,61,0.00,,,0.00,pywws,2013-04-27 00:17:00,
2013-04-26 20:23:00,50.2,37.7,30.40,East,90,0.0,0.7,62,0.00,,,0.00,pywws,2013-04-27 00:23:00,
2013-04-26 20:28:00,49.8,38.1,30.41,East,90,0.0,0.0,64,0.00,,,0.00,pywws,2013-04-27 00:28:00,
2013-04-26 20:34:00,49.6,38.0,30.41,SE,135,0.0,0.0,64,0.00,,,0.00,pywws,2013-04-27 00:34:00,
2013-04-26 20:39:00,48.9,37.3,30.41,South,180,0.0,0.0,64,0.00,,,0.00,pywws,2013-04-27 00:39:00,
2013-04-26 20:45:00,49.1,37.8,30.41,North,0,0.0,0.0,65,0.00,,,0.00,pywws,2013-04-27 00:45:00,
2013-04-26 20:51:00,48.7,37.5,30.42,North,0,0.0,0.0,65,0.00,,,0.00,pywws,2013-04-27 00:51:00,
2013-04-26 20:56:00,48.4,37.6,30.42,North,0,0.0,0.0,66,0.00,,,0.00,pywws,2013-04-27 00:56:00,
2013-04-26 21:04:00,48.6,38.1,30.42,East,90,0.0,0.0,67,0.00,,,0.00,pywws,2013-04-27 01:04:00,
2013-04-26 21:10:00,48.7,37.9,30.42,North,0,0.0,0.0,66,0.00,,,0.00,pywws,2013-04-27 01:10:00,
2013-04-26 21:15:00,48.6,38.1,30.42,NE,45,0.0,0.0,67,0.00,,,0.00,pywws,2013-04-27 01:15:00,
2013-04-26 21:21:00,48.6,38.1,30.42,North,0,0.0,0.0,67,0.00,,,0.00,pywws,2013-04-27 01:21:00,
2013-04-26 21:27:00,48.4,37.9,30.42,North,0,0.0,0.0,67,0.00,,,0.00,pywws,2013-04-27 01:27:00,
2013-04-26 21:33:00,47.8,38.2,30.42,North,0,0.0,0.0,69,0.00,,,0.00,pywws,2013-04-27 01:33:00,
2013-04-26 21:39:00,47.7,38.0,30.43,North,0,0.0,0.0,69,0.00,,,0.00,pywws,2013-04-27 01:39:00,
2013-04-26 21:44:00,47.3,38.0,30.42,North,0,0.0,0.0,70,0.00,,,0.00,pywws,2013-04-27 01:44:00,
2013-04-26 21:50:00,47.1,37.8,30.42,East,90,0.0,0.0,70,0.00,,,0.00,pywws,2013-04-27 01:50:00,
2013-04-26 21:55:00,46.9,37.7,30.43,North,0,0.0,0.0,70,0.00,,,0.00,pywws,2013-04-27 01:55:00,
2013-04-26 22:01:00,46.6,37.7,30.43,North,0,0.0,0.0,71,0.00,,,0.00,pywws,2013-04-27 02:01:00,
2013-04-26 22:07:00,46.6,37.7,30.42,South,180,0.0,0.0,71,0.00,,,0.00,pywws,2013-04-27 02:07:00,
2013-04-26 22:12:00,46.4,37.9,30.42,North,0,0.0,0.0,72,0.00,,,0.00,pywws,2013-04-27 02:12:00,
2013-04-26 22:18:00,46.2,37.7,30.43,SW,225,0.0,0.0,72,0.00,,,0.00,pywws,2013-04-27 02:18:00,
2013-04-26 22:24:00,46.0,37.5,30.43,North,0,0.0,0.0,72,0.00,,,0.00,pywws,2013-04-27 02:24:00,
2013-04-26 22:30:00,45.1,37.0,30.43,West,270,0.0,0.0,73,0.00,,,0.00,pywws,2013-04-27 02:30:00,
2013-04-26 22:35:00,44.1,36.3,30.43,West,270,0.0,0.0,74,0.00,,,0.00,pywws,2013-04-27 02:35:00,
2013-04-26 22:43:00,43.3,36.3,30.43,West,270,0.0,0.0,76,0.00,,,0.00,pywws,2013-04-27 02:43:00,
2013-04-26 22:48:00,43.2,36.4,30.43,West,270,0.0,0.0,77,0.00,,,0.00,pywws,2013-04-27 02:48:00,
2013-04-26 22:54:00,42.8,36.7,30.43,West,270,0.0,0.0,79,0.00,,,0.00,pywws,2013-04-27 02:54:00,
2013-04-26 22:59:00,42.1,36.7,30.43,West,270,0.0,0.0,81,0.00,,,0.00,pywws,2013-04-27 02:59:00,
2013-04-26 23:05:00,42.1,37.3,30.43,West,270,0.0,0.0,83,0.00,,,0.00,pywws,2013-04-27 03:05:00,
2013-04-26 23:11:00,41.7,36.9,30.43,West,270,0.0,0.0,83,0.00,,,0.00,pywws,2013-04-27 03:11:00,
2013-04-26 23:17:00,41.2,36.4,30.42,West,270,0.0,0.0,83,0.00,,,0.00,pywws,2013-04-27 03:17:00,
2013-04-26 23:23:00,40.8,36.7,30.43,North,0,0.0,0.0,85,0.00,,,0.00,pywws,2013-04-27 03:23:00,
2013-04-26 23:28:00,40.1,36.0,30.43,North,0,0.0,0.0,85,0.00,,,0.00,pywws,2013-04-27 03:28:00,
2013-04-26 23:35:00,40.1,36.3,30.43,North,0,0.0,0.0,86,0.00,,,0.00,pywws,2013-04-27 03:35:00,
2013-04-26 23:41:00,40.1,36.5,30.43,North,0,0.0,0.0,87,0.00,,,0.00,pywws,2013-04-27 03:41:00,
2013-04-26 23:47:00,39.7,36.2,30.43,North,0,0.0,0.0,87,0.00,,,0.00,pywws,2013-04-27 03:47:00,
2013-04-26 23:54:00,39.4,35.8,30.42,North,0,0.0,0.0,87,0.00,,,0.00,pywws,2013-04-27 03:54:00,